Accueil
METAR-TAF:

METAR-TAF

Aéroports :

Aéroport d'Annaba - Rabah-Bitat

Annaba, Algérie

latitude: 36-50N, longitude: 007-49E, altitude: 4 m

Observation

Le bulletin a été fait il y a 22 minutes, à 23:30 UTC
Vent 10 kt de sud-ouest
Température 10°C
Humidité 93%
Pression 1014 hPa
Visibilité: 8000 m
Quelques nuages à une hauteur de 2600 ft

METAR: DABB 292330Z 23010KT 8000 FEW026 10/09 Q1014

Heure: 00:52 (23:52 UTC)

Prévision

Le bulletin a été fait il y a 52 minutes, à 23:00 UTC
Prévision valable du 30 à 00 UTC au 30 à 24 UTC
Vent 8 kt de sud-ouest
Visibilité 10 km ou plus
Quelques nuages à une hauteur de 2000 ft
Nuages fragmentés à une hauteur de 2600 ft
Temporairement
du 30 à 00 UTC au 30 à 09 UTC
Quelques nuages à une hauteur de 2300 ft, Cumulonimbus.

TAF: DABB 292300Z 3000/3024 22008KT 9999 FEW020 BKN026 TEMPO 3000/3009 FEW023CB

Observations et prévisions météorologiques de plus de 4000 aéroports (messages METAR et TAF).

Les stations disponibles sont représentées par des disques jaunes et rouges sur la carte.

Passer la souris dessus pour voir le nom de la station.

Cliquer dessus pour voir les observations et prévisions météorologiques.

Pour changer de carte: cliquez sur les boutons verts avec une croix noire pour zoomer, sur le bouton vert avec un tiret pour effectuer un zoom arrière, ou sur les flèches vertes pour les cartes adjacentes.


METAR-TAF: